Time;durP1;ratioP1;P1;durP2;ratioP2;P2;SDS_P1;SDS_P2;PMS_P1;PMS_P2;Temp;Humidity;BMP_temperature;BMP_pressure;BME280_temperature;BME280_humidity;BME280_pressure;Samples;Min_cycle;Max_cycle;Signal;HPM_P1;HPM_P2
2023/03/12 00:01:11;;;;;;;4.40;2.20;;;;;;;9.89;51.94;93750.13;4989817;28;20300;-51
2023/03/12 00:03:39;;;;;;;3.43;2.30;;;;;;;9.85;51.83;93762.41;4990160;28;20231;-53
2023/03/12 00:06:06;;;;;;;6.07;2.03;;;;;;;9.82;51.83;93755.03;4989588;28;20665;-51
2023/03/12 00:08:33;;;;;;;2.27;1.90;;;;;;;9.79;51.86;93758.69;4989995;28;20196;-53
2023/03/12 00:11:05;;;;;;;2.30;2.10;;;;;;;9.76;51.78;93760.78;4989399;28;20705;-55
2023/03/12 00:13:31;;;;;;;2.30;2.10;;;;;;;9.73;51.81;93766.19;4990207;28;20577;-50
2023/03/12 00:16:03;;;;;;;4.53;2.40;;;;;;;9.73;51.79;93763.63;4989738;28;20642;-52
2023/03/12 00:18:30;;;;;;;4.50;2.60;;;;;;;9.71;51.60;93774.00;4989675;28;20197;-48
2023/03/12 00:20:57;;;;;;;4.00;2.17;;;;;;;9.70;51.35;93774.16;4989712;28;20196;-54
2023/03/12 00:23:24;;;;;;;3.07;2.67;;;;;;;9.67;51.66;93761.69;4989864;28;20193;-53
2023/03/12 00:25:50;;;;;;;3.10;2.37;;;;;;;9.65;51.64;93773.81;4989499;28;20665;-51
2023/03/12 00:28:19;;;;;;;4.43;2.50;;;;;;;9.62;51.50;93779.22;4990033;28;20193;-57
2023/03/12 00:30:45;;;;;;;2.50;2.30;;;;;;;9.60;51.78;93784.50;4989667;28;20688;-53
2023/03/12 00:33:13;;;;;;;3.03;2.57;;;;;;;9.59;51.62;93784.66;4989507;28;20193;-55
2023/03/12 00:35:39;;;;;;;5.43;2.50;;;;;;;9.55;51.60;93802.03;4989757;28;20716;-54
2023/03/12 00:38:06;;;;;;;2.37;2.17;;;;;;;9.53;51.70;93794.50;4989361;28;20229;-55
2023/03/12 00:40:33;;;;;;;2.60;2.40;;;;;;;9.54;51.74;93792.75;4988975;28;20282;-51
2023/03/12 00:43:00;;;;;;;2.60;2.40;;;;;;;9.51;51.53;93793.06;4989561;28;20622;-56
2023/03/12 00:45:28;;;;;;;2.30;2.20;;;;;;;9.48;51.64;93790.81;4989567;28;20189;-53
2023/03/12 00:47:54;;;;;;;2.90;2.67;;;;;;;9.48;51.31;93798.47;4989106;28;20619;-54
2023/03/12 00:50:21;;;;;;;3.47;2.57;;;;;;;9.47;51.42;93799.44;4989390;28;20181;-52
2023/03/12 00:52:48;;;;;;;3.80;2.23;;;;;;;9.44;51.51;93792.88;4989387;28;20259;-50
2023/03/12 00:55:15;;;;;;;2.60;2.40;;;;;;;9.42;51.50;93794.00;4992990;28;20225;-50
2023/03/12 00:57:42;;;;;;;2.63;2.43;;;;;;;9.40;51.51;93793.34;4993402;28;20641;-54
2023/03/12 01:00:10;;;;;;;3.60;2.50;;;;;;;9.39;51.53;93791.75;4993126;28;20735;-55
2023/03/12 01:02:39;;;;;;;4.20;2.40;;;;;;;9.36;51.56;93797.94;4982517;28;20206;-53
2023/03/12 01:05:08;;;;;;;2.37;2.17;;;;;;;9.35;51.48;93795.53;4973922;28;20264;-51
2023/03/12 01:07:35;;;;;;;2.40;2.20;;;;;;;9.31;51.57;93795.03;4973626;28;20685;-51
2023/03/12 01:10:03;;;;;;;7.40;2.90;;;;;;;9.31;51.51;93807.81;4990604;28;20747;-50
2023/03/12 01:12:30;;;;;;;3.60;2.40;;;;;;;9.28;51.40;93803.00;4993203;28;20259;-53
2023/03/12 01:14:56;;;;;;;3.13;2.93;;;;;;;9.27;51.39;93802.19;4992759;28;20193;-56
2023/03/12 01:17:23;;;;;;;2.77;2.57;;;;;;;9.25;51.56;93813.53;4992602;28;20200;-50
2023/03/12 01:19:51;;;;;;;3.57;2.73;;;;;;;9.22;51.56;93817.16;4992530;28;20220;-54
2023/03/12 01:22:18;;;;;;;2.80;2.60;;;;;;;9.20;51.65;93819.09;4993023;28;20193;-51
2023/03/12 01:24:45;;;;;;;3.17;2.87;;;;;;;9.19;51.48;93821.75;4992349;28;20193;-48
2023/03/12 01:27:11;;;;;;;4.93;2.50;;;;;;;9.15;51.51;93818.72;4992423;28;20199;-47
2023/03/12 01:29:38;;;;;;;3.20;3.00;;;;;;;9.14;51.52;93826.53;4992596;28;20185;-56
2023/03/12 01:32:06;;;;;;;2.97;2.77;;;;;;;9.11;51.62;93822.53;4992978;28;20197;-48
2023/03/12 01:34:34;;;;;;;3.47;2.83;;;;;;;9.11;51.52;93814.06;4992383;28;20201;-53
2023/03/12 01:37:02;;;;;;;3.70;2.50;;;;;;;9.10;51.59;93823.47;4992676;28;20638;-48
2023/03/12 01:39:29;;;;;;;3.30;2.70;;;;;;;9.07;51.66;93823.78;4991819;28;20319;-50
2023/03/12 01:41:56;;;;;;;3.00;2.80;;;;;;;9.05;51.71;93818.81;4992470;28;20208;-46
2023/03/12 01:44:23;;;;;;;3.20;2.70;;;;;;;9.03;51.73;93812.28;4992689;28;20283;-47
2023/03/12 01:46:50;;;;;;;3.50;2.70;;;;;;;9.02;51.83;93815.75;4992352;28;20192;-48
2023/03/12 01:49:20;;;;;;;3.63;2.87;;;;;;;8.99;51.73;93816.09;4991999;28;20200;-46
2023/03/12 01:51:51;;;;;;;3.20;2.40;;;;;;;8.99;51.71;93808.44;4992480;28;20626;-47
2023/03/12 01:54:22;;;;;;;3.80;2.43;;;;;;;8.98;51.76;93806.81;4992370;28;20251;-52
2023/03/12 01:56:50;;;;;;;2.60;2.40;;;;;;;8.91;51.63;93804.06;4992077;28;20225;-49
2023/03/12 01:59:23;;;;;;;2.53;2.33;;;;;;;8.97;51.69;93816.22;4992240;28;20614;-47
2023/03/12 02:01:50;;;;;;;3.30;3.00;;;;;;;8.95;51.77;93813.03;4991689;28;20205;-46
2023/03/12 02:04:20;;;;;;;3.67;2.57;;;;;;;8.95;51.60;93818.13;4991638;28;20383;-47
2023/03/12 02:06:53;;;;;;;2.80;2.60;;;;;;;8.94;51.66;93818.28;4991246;28;20189;-47
2023/03/12 02:09:22;;;;;;;2.83;2.63;;;;;;;8.94;51.68;93823.38;4972502;28;20597;-46
2023/03/12 02:11:49;;;;;;;2.97;2.67;;;;;;;8.93;51.79;93827.66;4985782;28;20194;-47
2023/03/12 02:14:16;;;;;;;5.53;2.83;;;;;;;8.93;51.54;93829.41;4992072;28;20639;-47
2023/03/12 02:16:43;;;;;;;2.80;2.60;;;;;;;8.93;51.70;93821.75;4991940;28;20192;-46
2023/03/12 02:19:18;;;;;;;3.03;2.63;;;;;;;8.92;51.52;93831.16;4991687;28;20200;-46
2023/03/12 02:21:46;;;;;;;3.00;2.80;;;;;;;8.92;51.45;93823.50;4991447;28;20328;-49
2023/03/12 02:24:22;;;;;;;2.70;2.50;;;;;;;8.85;51.46;93814.06;4991465;28;20263;-48
2023/03/12 02:26:51;;;;;;;3.40;2.57;;;;;;;8.90;51.62;93825.41;4991765;28;20534;-46
2023/03/12 02:29:17;;;;;;;2.93;2.70;;;;;;;8.89;51.55;93823.81;4992028;28;20193;-46
2023/03/12 02:31:50;;;;;;;3.37;2.57;;;;;;;8.89;51.51;93825.56;4991081;28;20200;-46
2023/03/12 02:34:17;;;;;;;3.13;2.53;;;;;;;8.88;51.48;93823.97;4991278;28;20193;-47
2023/03/12 02:36:43;;;;;;;2.33;2.20;;;;;;;8.88;51.43;93826.50;4991352;28;20189;-47
2023/03/12 02:39:12;;;;;;;3.37;3.00;;;;;;;8.85;51.36;93832.72;4991587;28;20264;-46
2023/03/12 02:41:42;;;;;;;5.03;2.63;;;;;;;8.85;51.41;93840.38;4991316;28;20196;-48
2023/03/12 02:44:14;;;;;;;3.30;2.40;;;;;;;8.79;51.31;93838.41;4990978;28;20244;-53
2023/03/12 02:46:43;;;;;;;3.03;2.27;;;;;;;8.82;51.61;93844.97;4991531;28;20200;-48
2023/03/12 02:49:12;;;;;;;2.90;2.70;;;;;;;8.82;51.62;93857.69;4991319;28;20593;-48
2023/03/12 02:51:39;;;;;;;2.53;2.40;;;;;;;8.78;51.48;93858.00;4991509;28;20272;-47
2023/03/12 02:54:06;;;;;;;3.13;2.83;;;;;;;8.79;51.60;93872.34;4991399;28;20577;-58
2023/03/12 02:56:33;;;;;;;3.37;2.40;;;;;;;8.80;51.56;93879.03;4990890;28;20589;-53
2023/03/12 02:59:00;;;;;;;2.97;2.77;;;;;;;8.79;51.62;93867.22;4991164;28;20216;-51
2023/03/12 03:01:29;;;;;;;2.47;2.27;;;;;;;8.78;51.48;93880.13;4991324;28;20213;-48
2023/03/12 03:03:55;;;;;;;4.03;2.50;;;;;;;8.77;51.54;93871.69;4991052;28;20181;-48
2023/03/12 03:06:22;;;;;;;4.07;2.50;;;;;;;8.76;51.54;93870.09;4991025;28;20193;-49
2023/03/12 03:08:49;;;;;;;3.20;2.37;;;;;;;8.76;51.52;93867.56;4990844;28;20185;-52
2023/03/12 03:11:16;;;;;;;2.90;2.60;;;;;;;8.51;51.38;93825.75;4990899;28;20197;-54
2023/03/12 03:13:42;;;;;;;2.97;2.67;;;;;;;8.73;51.57;93872.13;4990474;28;20259;-50
2023/03/12 03:16:11;;;;;;;2.70;2.50;;;;;;;8.71;51.41;93874.81;4990201;28;20785;-47
2023/03/12 03:18:39;;;;;;;3.50;2.40;;;;;;;8.70;51.50;93870.66;4990284;28;20197;-50
2023/03/12 03:21:08;;;;;;;3.60;2.63;;;;;;;8.70;51.38;93864.78;4990974;28;20232;-53
2023/03/12 03:23:35;;;;;;;2.70;2.50;;;;;;;8.67;51.33;93867.59;4990621;28;20315;-56
2023/03/12 03:26:02;;;;;;;2.80;2.60;;;;;;;8.67;51.32;93875.25;4990201;28;20491;-52
2023/03/12 03:28:30;;;;;;;2.60;2.40;;;;;;;8.65;51.29;93869.50;4990191;28;20332;-48
2023/03/12 03:31:00;;;;;;;5.17;2.60;;;;;;;8.56;50.88;93862.75;4990179;28;20193;-48
2023/03/12 03:33:28;;;;;;;2.60;2.40;;;;;;;8.58;51.19;93858.28;4990215;28;20672;-53
2023/03/12 03:35:58;;;;;;;2.70;2.50;;;;;;;8.56;50.96;93840.59;4990160;28;20189;-46
2023/03/12 03:38:25;;;;;;;2.60;2.40;;;;;;;8.56;50.79;93860.19;4990132;28;20203;-46
2023/03/12 03:40:53;;;;;;;2.70;2.50;;;;;;;8.54;50.88;93857.78;4990146;28;20810;-53
2023/03/12 03:43:20;;;;;;;3.77;2.60;;;;;;;8.48;50.92;93863.47;4990336;28;20200;-52
2023/03/12 03:45:47;;;;;;;2.50;2.30;;;;;;;8.51;50.70;93875.91;4990218;28;20193;-48
2023/03/12 03:48:15;;;;;;;3.50;2.73;;;;;;;8.49;50.50;93883.69;4989851;28;20196;-47
2023/03/12 03:50:42;;;;;;;2.57;2.20;;;;;;;8.49;50.65;93891.34;4990137;28;20200;-55
2023/03/12 03:53:11;;;;;;;2.73;2.50;;;;;;;8.48;50.91;93894.84;4990165;28;20189;-49
2023/03/12 03:55:38;;;;;;;2.80;2.60;;;;;;;8.46;50.68;93889.09;4989567;28;20225;-54
2023/03/12 03:58:05;;;;;;;2.57;2.37;;;;;;;8.46;50.50;93893.38;4990036;28;20193;-54
2023/03/12 04:00:32;;;;;;;3.10;2.57;;;;;;;8.44;50.69;93908.81;4989399;28;20283;-52
2023/03/12 04:02:59;;;;;;;2.50;2.30;;;;;;;8.43;50.55;93904.66;4989902;28;20736;-52
2023/03/12 04:05:26;;;;;;;2.70;2.30;;;;;;;8.38;50.43;93896.66;4989696;28;20200;-57
2023/03/12 04:07:54;;;;;;;3.40;2.30;;;;;;;8.39;50.48;93908.44;4989336;28;20196;-51
2023/03/12 04:10:24;;;;;;;3.10;2.50;;;;;;;8.38;50.18;93909.41;4989395;28;20193;-54
2023/03/12 04:12:51;;;;;;;2.33;2.20;;;;;;;8.36;50.44;93918.88;4989961;28;20189;-52
2023/03/12 04:15:18;;;;;;;5.47;2.00;;;;;;;8.34;50.31;93910.59;4989528;28;20212;-50
2023/03/12 04:17:45;;;;;;;2.67;2.30;;;;;;;8.32;50.38;93926.97;4989709;28;20561;-56
2023/03/12 04:20:13;;;;;;;3.30;2.10;;;;;;;8.30;50.14;93917.72;4989134;28;20676;-58
2023/03/12 04:22:40;;;;;;;2.27;1.97;;;;;;;8.29;50.05;93928.84;4989694;28;20328;-57
2023/03/12 04:25:07;;;;;;;2.60;2.40;;;;;;;8.27;50.09;93925.63;4989590;28;20209;-54
2023/03/12 04:27:35;;;;;;;3.53;2.23;;;;;;;8.26;49.99;93926.59;4988779;28;20193;-46
2023/03/12 04:30:02;;;;;;;2.90;2.33;;;;;;;8.24;50.00;93920.81;4989677;28;20207;-51
2023/03/12 04:32:29;;;;;;;2.37;2.17;;;;;;;8.24;49.85;93938.66;4989219;28;20197;-47
2023/03/12 04:34:56;;;;;;;2.43;2.20;;;;;;;8.23;49.86;93944.69;4989649;28;20205;-51
2023/03/12 04:37:23;;;;;;;2.23;2.03;;;;;;;8.22;49.82;93937.19;4989438;28;20204;-47
2023/03/12 04:39:50;;;;;;;2.23;2.07;;;;;;;8.21;49.80;93949.13;4989398;28;20697;-45
2023/03/12 04:42:16;;;;;;;2.77;2.27;;;;;;;8.20;49.78;93947.53;4989197;28;20681;-51
2023/03/12 04:44:45;;;;;;;3.67;2.10;;;;;;;8.20;49.89;93957.72;4989926;28;20217;-54
2023/03/12 04:47:11;;;;;;;2.47;2.27;;;;;;;8.22;49.77;93960.91;4989259;28;20225;-48
2023/03/12 04:49:39;;;;;;;2.53;2.30;;;;;;;8.21;49.87;93966.97;4989522;28;20192;-50
2023/03/12 04:52:06;;;;;;;3.27;2.47;;;;;;;8.16;49.76;93961.50;4989148;28;20208;-51
2023/03/12 04:54:33;;;;;;;2.20;2.10;;;;;;;8.21;49.83;93979.69;4989500;28;20197;-47
2023/03/12 04:57:00;;;;;;;2.43;2.13;;;;;;;8.21;49.71;93984.00;4988745;28;20220;-52
2023/03/12 04:59:27;;;;;;;2.50;2.30;;;;;;;8.23;49.79;93980.34;4989454;28;20201;-51
2023/03/12 05:01:55;;;;;;;2.23;2.07;;;;;;;8.26;49.54;93986.91;4989515;28;20221;-51
2023/03/12 05:04:22;;;;;;;2.93;2.60;;;;;;;8.27;49.46;93991.84;4989253;28;20217;-52
2023/03/12 05:06:48;;;;;;;2.90;2.30;;;;;;;8.30;49.38;93990.78;4989175;28;20680;-50
2023/03/12 05:09:15;;;;;;;2.60;2.40;;;;;;;8.33;49.49;93985.38;4989168;28;20189;-49
2023/03/12 05:11:42;;;;;;;2.67;2.10;;;;;;;8.35;49.32;93993.72;4989143;28;20193;-51
2023/03/12 05:14:09;;;;;;;2.10;2.00;;;;;;;8.39;49.46;93996.81;4989045;28;20597;-51
2023/03/12 05:16:36;;;;;;;2.27;1.93;;;;;;;8.43;49.29;93998.94;4989149;28;20682;-49
2023/03/12 05:19:04;;;;;;;3.07;2.77;;;;;;;8.62;49.17;94002.31;4988932;28;20608;-55
2023/03/12 05:21:32;;;;;;;2.37;2.27;;;;;;;8.89;48.78;94002.28;4989041;28;20282;-47
2023/03/12 05:23:59;;;;;;;2.07;1.97;;;;;;;9.19;48.62;94006.22;4988814;28;20714;-49
2023/03/12 05:26:30;;;;;;;2.37;2.10;;;;;;;9.58;48.73;94005.88;4989367;28;20212;-46
2023/03/12 05:28:57;;;;;;;3.03;2.10;;;;;;;9.95;48.57;94010.78;4989044;28;20201;-47
2023/03/12 05:31:24;;;;;;;2.13;1.97;;;;;;;10.11;48.26;93994.75;4988930;28;20272;-53
2023/03/12 05:33:52;;;;;;;1.90;1.80;;;;;;;10.44;48.28;94020.47;4988875;28;20193;-53
2023/03/12 05:36:20;;;;;;;3.40;2.07;;;;;;;10.60;47.83;94023.09;4989567;28;20670;-51
2023/03/12 05:38:47;;;;;;;2.00;1.90;;;;;;;10.79;47.68;94024.59;4988725;28;20747;-53
2023/03/12 05:41:20;;;;;;;2.17;2.07;;;;;;;11.24;47.45;94029.34;4992661;28;20213;-51
2023/03/12 05:43:47;;;;;;;2.63;2.30;;;;;;;11.92;47.45;94027.47;4992580;28;20185;-57
2023/03/12 05:46:14;;;;;;;5.00;2.00;;;;;;;12.71;47.38;94030.94;4992853;28;20572;-54
2023/03/12 05:48:41;;;;;;;2.00;1.90;;;;;;;13.55;46.96;94035.28;4992726;28;20678;-55
2023/03/12 05:51:08;;;;;;;2.17;1.87;;;;;;;14.45;46.47;94025.94;4991887;28;20263;-51
2023/03/12 05:53:36;;;;;;;2.10;2.00;;;;;;;15.37;45.99;94044.31;4992220;28;20182;-53
2023/03/12 05:56:04;;;;;;;2.80;1.93;;;;;;;16.27;45.28;94038.53;4992312;28;20233;-53
2023/03/12 05:58:31;;;;;;;2.10;1.90;;;;;;;17.15;44.71;94031.06;4992522;28;20212;-53
2023/03/12 06:00:58;;;;;;;2.00;1.90;;;;;;;18.01;43.77;94039.00;4992076;28;20236;-52
2023/03/12 06:03:25;;;;;;;1.97;1.87;;;;;;;18.81;43.03;94046.66;4992263;28;20193;-53
2023/03/12 06:05:54;;;;;;;4.20;1.87;;;;;;;19.61;42.34;94057.50;4992371;28;20189;-56
2023/03/12 06:08:21;;;;;;;1.90;1.80;;;;;;;20.36;41.76;94059.34;4992514;28;20203;-53
2023/03/12 06:10:53;;;;;;;1.77;1.67;;;;;;;20.99;40.80;94057.34;4992266;28;20224;-52
2023/03/12 06:13:21;;;;;;;1.70;1.60;;;;;;;21.66;40.45;94066.94;4992626;28;20573;-52
2023/03/12 06:15:48;;;;;;;3.83;2.17;;;;;;;22.38;40.08;94069.50;4992170;28;20201;-51
2023/03/12 06:18:15;;;;;;;1.90;1.80;;;;;;;23.10;39.48;94067.44;4992682;28;20261;-52
2023/03/12 06:20:42;;;;;;;2.13;1.92;;;;;;;23.85;38.78;94065.72;4991715;28;20567;-52
2023/03/12 06:23:09;;;;;;;1.85;1.75;;;;;;;24.55;38.34;94070.53;4992401;28;20205;-55
2023/03/12 06:25:35;;;;;;;1.60;1.50;;;;;;;25.19;37.84;94076.13;4992251;28;20197;-53
2023/03/12 06:28:04;;;;;;;1.48;1.40;;;;;;;25.84;37.13;94084.19;4990875;28;20607;-52
2023/03/12 06:30:31;;;;;;;1.77;1.67;;;;;;;26.42;36.92;94099.09;4991579;28;20201;-53
2023/03/12 06:32:58;;;;;;;1.73;1.50;;;;;;;26.94;36.64;94108.97;4991851;28;20395;-52
2023/03/12 06:35:24;;;;;;;1.70;1.60;;;;;;;27.40;35.87;94111.81;4992379;28;20200;-53
2023/03/12 06:37:51;;;;;;;2.88;1.52;;;;;;;27.85;35.20;94123.59;4992189;28;20197;-54
2023/03/12 06:40:18;;;;;;;1.45;1.35;;;;;;;28.39;34.90;94132.88;4991760;28;20299;-51
2023/03/12 06:42:45;;;;;;;1.70;1.60;;;;;;;28.90;34.63;94131.03;4991564;28;20213;-56
2023/03/12 06:45:13;;;;;;;1.38;1.30;;;;;;;29.40;34.21;94133.81;4991569;28;20204;-50
2023/03/12 06:47:40;;;;;;;1.60;1.50;;;;;;;29.88;33.93;94135.00;4991271;28;20193;-51
2023/03/12 06:50:08;;;;;;;1.80;1.70;;;;;;;30.33;33.59;94133.16;4992065;28;20197;-55
2023/03/12 06:52:34;;;;;;;1.50;1.40;;;;;;;30.75;33.36;94137.09;4990774;28;20193;-52
2023/03/12 06:55:01;;;;;;;3.35;1.52;;;;;;;31.11;33.06;94137.53;4991339;28;21334;-53
2023/03/12 06:57:28;;;;;;;1.50;1.42;;;;;;;31.39;32.74;94148.34;4991812;28;20185;-53
2023/03/12 06:59:55;;;;;;;2.65;1.63;;;;;;;31.60;32.53;94152.34;4991499;28;20197;-55
2023/03/12 07:02:23;;;;;;;2.50;1.60;;;;;;;31.81;32.32;94155.53;4991029;28;20689;-53
2023/03/12 07:04:50;;;;;;;1.70;1.60;;;;;;;32.02;32.20;94160.59;4990945;28;20200;-53
2023/03/12 07:07:18;;;;;;;2.30;1.38;;;;;;;32.20;32.13;94155.31;4991562;28;20201;-52
2023/03/12 07:09:45;;;;;;;1.77;1.45;;;;;;;32.40;31.62;94161.41;4990299;28;20261;-51
2023/03/12 07:12:12;;;;;;;1.58;1.48;;;;;;;32.61;31.32;94169.84;4988486;28;20189;-55
2023/03/12 07:14:39;;;;;;;1.50;1.40;;;;;;;32.81;31.23;94169.50;4985578;28;20208;-52
2023/03/12 07:17:06;;;;;;;1.60;1.50;;;;;;;33.03;31.23;94176.84;4985767;28;20185;-52
2023/03/12 07:19:34;;;;;;;2.60;1.80;;;;;;;33.18;31.07;94178.47;4985965;28;20216;-52
2023/03/12 07:22:02;;;;;;;1.27;1.17;;;;;;;33.33;30.87;94177.41;4985957;28;20220;-47
2023/03/12 07:24:29;;;;;;;1.50;1.40;;;;;;;33.49;30.52;94194.63;4985136;28;20192;-47
2023/03/12 07:26:55;;;;;;;1.45;1.35;;;;;;;33.64;30.71;94194.34;4984961;28;20185;-48
2023/03/12 07:29:33;;;;;;;1.40;1.30;;;;;;;33.78;30.53;94199.66;4988239;28;20207;-49
2023/03/12 07:32:00;;;;;;;1.58;1.48;;;;;;;33.92;30.40;94199.66;4986654;28;20542;-50
2023/03/12 07:34:27;;;;;;;1.70;1.60;;;;;;;34.06;30.38;94202.31;4987911;28;20287;-50
2023/03/12 07:36:55;;;;;;;1.98;1.40;;;;;;;34.17;30.22;94207.13;4988690;28;20201;-48
2023/03/12 07:39:22;;;;;;;1.65;1.52;;;;;;;34.25;30.38;94200.31;4987730;28;20193;-54
2023/03/12 07:41:49;;;;;;;2.30;1.20;;;;;;;34.22;30.70;94197.47;4988639;28;20240;-47
2023/03/12 07:44:15;;;;;;;1.25;1.15;;;;;;;33.76;33.42;94204.47;4985840;28;20185;-49
2023/03/12 07:46:43;;;;;;;1.10;1.10;;;;;;;33.18;33.69;94210.28;4988314;28;20199;-49
2023/03/12 07:49:10;;;;;;;1.77;1.30;;;;;;;32.57;34.19;94209.34;4987780;28;20280;-51
2023/03/12 07:51:36;;;;;;;3.33;1.40;;;;;;;32.13;33.96;94217.63;4987780;28;20210;-54
2023/03/12 07:54:05;;;;;;;2.65;1.40;;;;;;;31.75;34.74;94208.78;4987292;28;20185;-49
2023/03/12 07:56:32;;;;;;;2.85;1.60;;;;;;;31.39;34.79;94202.03;4987240;28;20236;-46
2023/03/12 07:58:58;;;;;;;2.00;1.40;;;;;;;31.11;35.31;94200.16;4988072;28;20196;-47
2023/03/12 08:01:30;;;;;;;1.60;1.50;;;;;;;30.79;35.09;94205.97;4987317;28;20709;-48
2023/03/12 08:03:57;;;;;;;7.50;1.40;;;;;;;30.44;35.48;94211.19;4987299;28;20207;-49
2023/03/12 08:06:24;;;;;;;2.70;1.20;;;;;;;30.13;35.23;94215.00;4987322;28;20200;-49
2023/03/12 08:08:51;;;;;;;3.88;1.67;;;;;;;29.88;35.10;94223.81;4986743;28;20602;-48
2023/03/12 08:11:19;;;;;;;8.75;1.45;;;;;;;29.66;34.66;94221.53;4987598;28;20297;-53
2023/03/12 08:13:46;;;;;;;7.07;1.38;;;;;;;29.40;35.34;94218.13;4986883;28;20243;-48
2023/03/12 08:16:13;;;;;;;5.03;1.48;;;;;;;29.12;35.62;94222.13;4987306;28;20201;-51
2023/03/12 08:18:41;;;;;;;3.65;1.60;;;;;;;28.85;35.53;94222.38;4987651;28;20247;-49
2023/03/12 08:21:09;;;;;;;3.63;1.50;;;;;;;28.64;35.64;94216.31;4987039;28;20182;-46
2023/03/12 08:23:35;;;;;;;2.20;1.38;;;;;;;28.46;35.86;94228.91;4986997;28;20578;-48
2023/03/12 08:26:02;;;;;;;2.95;1.40;;;;;;;28.31;35.96;94228.06;4987143;28;20867;-54
2023/03/12 08:28:30;;;;;;;2.28;1.48;;;;;;;28.18;35.76;94231.97;4987166;28;20205;-47
2023/03/12 08:30:59;;;;;;;4.95;1.60;;;;;;;28.09;35.56;94234.31;4987150;28;20196;-48
2023/03/12 08:33:26;;;;;;;2.53;1.40;;;;;;;27.98;35.60;94243.22;4985684;28;20200;-49
2023/03/12 08:35:53;;;;;;;1.40;1.30;;;;;;;27.89;35.51;94245.53;4987387;28;20593;-47
2023/03/12 08:38:20;;;;;;;3.83;1.40;;;;;;;27.78;35.41;94237.88;4986836;28;20212;-49
2023/03/12 08:40:47;;;;;;;3.10;1.50;;;;;;;27.63;35.61;94239.31;4987058;28;20211;-48
2023/03/12 08:43:13;;;;;;;2.15;1.38;;;;;;;27.61;35.07;94256.41;4986622;28;20220;-51
2023/03/12 08:45:41;;;;;;;1.40;1.30;;;;;;;27.54;32.95;94253.19;4987400;28;20185;-49
2023/03/12 08:48:08;;;;;;;4.30;1.52;;;;;;;27.38;32.44;94257.59;4987038;28;20205;-48
2023/03/12 08:50:35;;;;;;;2.40;1.50;;;;;;;27.22;32.51;94249.59;4986606;28;20197;-50
2023/03/12 08:53:02;;;;;;;1.85;1.65;;;;;;;27.05;31.87;94248.91;4986498;28;20740;-51
2023/03/12 08:55:29;;;;;;;4.53;1.70;;;;;;;26.84;32.19;94252.41;4984075;28;20231;-51
2023/03/12 08:57:56;;;;;;;2.15;1.63;;;;;;;26.66;32.32;94258.81;4988197;28;20200;-54
2023/03/12 09:00:23;;;;;;;3.25;1.50;;;;;;;26.45;32.48;94263.06;4989382;28;20193;-49
2023/03/12 09:02:53;;;;;;;2.80;1.90;;;;;;;26.36;32.75;94260.06;4988154;28;20232;-50
2023/03/12 09:05:20;;;;;;;2.47;1.70;;;;;;;26.24;32.62;94268.03;4989117;28;20197;-53
2023/03/12 09:07:48;;;;;;;2.08;1.30;;;;;;;26.10;32.76;94271.31;4988874;28;20196;-49
2023/03/12 09:10:16;;;;;;;2.47;1.55;;;;;;;25.90;32.35;94272.63;4988867;28;20687;-47
2023/03/12 09:12:43;;;;;;;1.70;1.58;;;;;;;25.73;32.31;94272.66;4989038;28;20193;-51
2023/03/12 09:15:11;;;;;;;3.15;1.65;;;;;;;25.55;32.13;94272.91;4990577;28;20193;-50
2023/03/12 09:17:38;;;;;;;3.40;1.52;;;;;;;25.34;32.06;94256.13;4992867;28;20197;-50
2023/03/12 09:20:09;;;;;;;5.15;1.90;;;;;;;25.19;32.12;94259.31;4992845;28;20312;-51
2023/03/12 09:22:36;;;;;;;2.33;1.80;;;;;;;25.03;32.40;94260.88;4991899;28;20231;-47
2023/03/12 09:25:03;;;;;;;1.70;1.60;;;;;;;24.89;32.50;94264.84;4992598;28;20220;-50
2023/03/12 09:27:30;;;;;;;4.25;1.67;;;;;;;24.70;32.66;94269.50;4971507;28;20637;-48
2023/03/12 09:29:57;;;;;;;2.58;1.58;;;;;;;24.51;32.83;94262.88;4973084;28;20193;-47
2023/03/12 09:32:26;;;;;;;2.08;1.60;;;;;;;24.24;32.60;94247.72;4973053;28;20293;-49
2023/03/12 09:34:53;;;;;;;1.80;1.70;;;;;;;23.98;32.49;94249.06;4973087;28;20617;-49
2023/03/12 09:37:21;;;;;;;3.65;1.85;;;;;;;23.76;32.14;94248.88;4973129;28;20232;-51
2023/03/12 09:39:49;;;;;;;2.55;1.73;;;;;;;23.51;32.04;94259.56;4972881;28;20201;-48
2023/03/12 09:42:25;;;;;;;2.13;1.65;;;;;;;23.26;31.92;94265.00;4972976;28;20226;-48
2023/03/12 09:44:54;;;;;;;2.00;1.80;;;;;;;23.01;32.11;94262.63;4972949;28;20194;-48
2023/03/12 09:47:28;;;;;;;2.95;1.60;;;;;;;22.75;32.07;94255.97;4973098;28;20209;-48
2023/03/12 09:50:01;;;;;;;1.70;1.60;;;;;;;22.53;32.13;94257.47;4972967;28;20211;-48
2023/03/12 09:52:33;;;;;;;1.80;1.70;;;;;;;22.29;32.05;94248.81;4972307;28;20303;-50
2023/03/12 09:55:06;;;;;;;1.92;1.77;;;;;;;22.05;31.75;94250.47;4972742;28;20190;-47
2023/03/12 09:57:33;;;;;;;2.42;1.70;;;;;;;21.82;31.90;94248.53;4992411;28;20385;-49
2023/03/12 10:00:00;;;;;;;2.30;2.10;;;;;;;21.54;31.98;94243.81;4992250;28;20181;-47
2023/03/12 10:02:48;;;;;;;2.10;1.98;;;;;;;21.35;31.93;94258.63;4991962;28;20217;-48
2023/03/12 10:05:20;;;;;;;2.17;1.98;;;;;;;21.17;32.10;94258.59;4991349;28;20197;-47
2023/03/12 10:07:55;;;;;;;5.55;1.98;;;;;;;21.00;31.89;94253.91;4992033;28;20688;-48
2023/03/12 10:10:32;;;;;;;3.45;1.60;;;;;;;20.86;32.11;94241.25;4991981;28;20233;-50
2023/03/12 10:13:15;;;;;;;1.98;1.65;;;;;;;20.70;32.19;94245.94;4992111;28;20188;-51
2023/03/12 10:15:58;;;;;;;2.05;1.70;;;;;;;20.56;32.22;94247.06;4991856;28;20199;-48
2023/03/12 10:18:36;;;;;;;3.77;1.80;;;;;;;20.42;32.25;94243.72;4990262;28;20653;-50
2023/03/12 10:21:22;;;;;;;3.63;1.67;;;;;;;20.22;32.39;94233.44;4991752;28;20700;-49
2023/03/12 10:24:06;;;;;;;1.80;1.70;;;;;;;20.16;32.30;94239.44;4991358;28;20724;-49
2023/03/12 10:26:38;;;;;;;3.00;1.73;;;;;;;20.04;32.28;94241.13;4990505;28;20197;-48
2023/03/12 10:29:13;;;;;;;1.70;1.60;;;;;;;19.91;32.34;94241.97;4991807;28;20193;-46
2023/03/12 10:31:48;;;;;;;2.40;1.63;;;;;;;19.85;32.38;94244.56;4991447;28;20200;-49
2023/03/12 10:34:19;;;;;;;1.70;1.60;;;;;;;19.76;32.23;94237.03;4991525;28;20567;-49
2023/03/12 10:36:46;;;;;;;3.23;1.70;;;;;;;19.70;32.35;94244.84;4991150;28;20189;-50
2023/03/12 10:39:17;;;;;;;2.07;1.87;;;;;;;19.62;32.32;94250.25;4991128;28;20661;-48
2023/03/12 10:41:46;;;;;;;1.83;1.73;;;;;;;19.54;32.34;94243.44;4991129;28;20200;-51
2023/03/12 10:44:20;;;;;;;1.80;1.70;;;;;;;19.44;32.26;94245.69;4989999;28;20236;-48
2023/03/12 10:47:01;;;;;;;1.63;1.53;;;;;;;19.36;32.41;94246.69;4990988;28;20227;-49
2023/03/12 10:49:33;;;;;;;4.07;2.03;;;;;;;19.31;32.39;94251.69;4991349;28;20193;-47
2023/03/12 10:52:03;;;;;;;1.97;1.37;;;;;;;19.25;32.20;94242.91;4991012;28;20196;-52
2023/03/12 10:54:35;;;;;;;3.87;1.93;;;;;;;19.25;32.12;94252.47;4991048;28;20617;-48
2023/03/12 10:57:03;;;;;;;1.90;1.80;;;;;;;19.18;32.14;94244.72;4990826;28;20240;-49
2023/03/12 10:59:32;;;;;;;1.80;1.70;;;;;;;19.19;32.08;94241.13;4991170;28;20197;-48
2023/03/12 11:02:00;;;;;;;1.53;1.43;;;;;;;19.11;31.98;94236.16;4990707;28;20636;-48
2023/03/12 11:04:29;;;;;;;1.50;1.40;;;;;;;19.00;32.21;94219.44;4991309;28;20204;-52
2023/03/12 11:07:06;;;;;;;1.63;1.53;;;;;;;18.96;32.02;94240.75;4990855;28;20212;-50
2023/03/12 11:09:35;;;;;;;1.90;1.80;;;;;;;18.85;32.07;94242.16;4988873;28;20195;-47
2023/03/12 11:12:01;;;;;;;1.57;1.43;;;;;;;18.78;32.10;94229.22;4990560;28;20574;-49
2023/03/12 11:14:30;;;;;;;1.73;1.63;;;;;;;18.73;32.19;94226.41;4991065;28;20561;-46
2023/03/12 11:16:57;;;;;;;1.80;1.70;;;;;;;18.70;32.25;94226.81;4990421;28;20188;-49
2023/03/12 11:19:29;;;;;;;2.20;1.70;;;;;;;18.64;32.13;94227.56;4990663;28;20677;-47
2023/03/12 11:21:58;;;;;;;1.60;1.50;;;;;;;18.60;32.35;94228.94;4990227;28;20193;-47
2023/03/12 11:24:25;;;;;;;1.97;1.70;;;;;;;18.54;32.03;94225.38;4990586;28;20200;-49
2023/03/12 11:26:59;;;;;;;2.00;1.80;;;;;;;18.46;32.21;94228.16;4990574;28;20193;-48
2023/03/12 11:29:30;;;;;;;1.80;1.70;;;;;;;18.37;32.24;94231.13;4990454;28;20602;-51
2023/03/12 11:32:03;;;;;;;1.80;1.70;;;;;;;18.34;32.32;94227.13;4990186;28;20645;-49
2023/03/12 11:34:32;;;;;;;1.60;1.50;;;;;;;18.36;32.31;94226.94;4990083;28;20201;-50
2023/03/12 11:37:07;;;;;;;1.80;1.60;;;;;;;18.42;32.31;94226.16;4989768;28;20185;-52
2023/03/12 11:39:56;;;;;;;1.60;1.50;;;;;;;18.54;32.17;94227.16;4990258;28;20659;-49
2023/03/12 11:42:39;;;;;;;1.70;1.60;;;;;;;18.66;31.97;94227.38;4989870;28;20243;-51